Time;durP1;ratioP1;P1;durP2;ratioP2;P2;SDS_P1;SDS_P2;PMS_P1;PMS_P2;Temp;Humidity;BMP_temperature;BMP_pressure;BME280_temperature;BME280_humidity;BME280_pressure;Samples;Min_cycle;Max_cycle;Signal;HPM_P1;HPM_P2
2021/06/19 00:00:08;;;;;;;8.20;3.37;;;23.80;99.90;;;;;;5015265;28;20577;-74
2021/06/19 00:02:34;;;;;;;3.77;2.80;;;23.80;99.90;;;;;;5013767;28;20418;-74
2021/06/19 00:05:00;;;;;;;7.47;3.53;;;23.70;99.90;;;;;;5014995;28;20848;-74
2021/06/19 00:07:25;;;;;;;9.73;3.53;;;23.60;99.90;;;;;;5015246;28;20220;-74
2021/06/19 00:09:51;;;;;;;6.90;4.00;;;23.60;99.90;;;;;;5014729;28;20174;-74
2021/06/19 00:12:18;;;;;;;5.90;3.13;;;23.50;99.90;;;;;;5014999;28;20186;-75
2021/06/19 00:14:44;;;;;;;7.93;3.63;;;23.50;99.90;;;;;;5014750;28;20211;-77
2021/06/19 00:17:11;;;;;;;7.97;3.43;;;23.40;99.90;;;;;;5014818;28;20401;-77
2021/06/19 00:19:37;;;;;;;6.03;3.43;;;23.30;99.90;;;;;;5014953;28;20417;-74
2021/06/19 00:22:03;;;;;;;9.47;2.97;;;23.40;99.90;;;;;;5014687;28;20968;-76
2021/06/19 00:24:36;;;;;;;8.67;2.70;;;23.30;99.90;;;;;;5014370;28;20252;-75
2021/06/19 00:27:02;;;;;;;6.37;3.60;;;23.30;99.90;;;;;;5014900;28;20436;-75
2021/06/19 00:29:30;;;;;;;6.53;3.20;;;23.20;99.90;;;;;;5014586;28;20505;-75
2021/06/19 00:31:55;;;;;;;9.63;3.50;;;23.30;99.90;;;;;;5014488;28;20544;-76
2021/06/19 00:34:21;;;;;;;5.80;2.77;;;23.10;99.90;;;;;;5014091;28;20544;-75
2021/06/19 00:36:46;;;;;;;5.17;2.87;;;23.10;99.90;;;;;;5014517;28;20545;-76
2021/06/19 00:39:12;;;;;;;9.40;2.70;;;23.00;99.90;;;;;;5014540;28;20174;-74
2021/06/19 00:41:38;;;;;;;3.47;2.03;;;23.00;99.90;;;;;;5014519;28;20285;-77
2021/06/19 00:44:13;;;;;;;3.33;2.70;;;22.90;99.90;;;;;;5013966;28;20206;-76
2021/06/19 00:46:39;;;;;;;8.00;3.17;;;22.90;99.90;;;;;;5014351;28;20402;-75
2021/06/19 00:49:04;;;;;;;4.87;2.20;;;22.80;99.90;;;;;;5014300;28;20424;-74
2021/06/19 00:51:30;;;;;;;2.73;2.53;;;22.80;99.90;;;;;;5014360;28;20317;-74
2021/06/19 00:53:56;;;;;;;7.47;2.10;;;22.80;99.90;;;;;;5012968;28;20351;-77
2021/06/19 00:56:22;;;;;;;6.43;2.30;;;22.80;99.90;;;;;;5014424;28;20547;-74
2021/06/19 00:58:48;;;;;;;5.60;2.70;;;22.70;99.90;;;;;;5014251;28;20474;-75
2021/06/19 01:01:14;;;;;;;7.17;2.97;;;22.70;99.90;;;;;;5014236;28;20467;-76
2021/06/19 01:03:39;;;;;;;2.40;2.20;;;22.60;99.90;;;;;;5013787;28;20462;-76
2021/06/19 01:06:05;;;;;;;4.13;2.70;;;22.50;99.90;;;;;;5014005;28;20594;-80
2021/06/19 01:08:31;;;;;;;2.53;2.30;;;22.30;99.90;;;;;;5012828;28;20175;-77
2021/06/19 01:10:57;;;;;;;6.57;3.23;;;22.30;99.90;;;;;;5013812;28;20454;-76
2021/06/19 01:13:23;;;;;;;6.43;2.67;;;22.30;99.90;;;;;;5013635;28;20187;-76
2021/06/19 01:15:49;;;;;;;4.60;2.60;;;22.20;99.90;;;;;;5013983;28;20413;-75
2021/06/19 01:18:14;;;;;;;3.50;2.10;;;22.30;99.90;;;;;;5013874;28;20178;-76
2021/06/19 01:20:40;;;;;;;8.13;2.37;;;22.20;99.90;;;;;;5013990;28;20182;-76
2021/06/19 01:23:06;;;;;;;3.23;2.53;;;22.10;99.90;;;;;;5017963;28;20666;-76
2021/06/19 01:25:36;;;;;;;3.03;2.07;;;22.00;99.90;;;;;;5013656;28;20282;-74
2021/06/19 01:28:07;;;;;;;3.50;2.20;;;21.90;99.90;;;;;;5012493;28;20178;-74
2021/06/19 01:30:33;;;;;;;4.30;2.43;;;21.80;99.90;;;;;;5013517;28;20829;-75
2021/06/19 01:32:59;;;;;;;7.33;3.20;;;21.80;99.90;;;;;;5013440;28;20421;-76
2021/06/19 01:35:25;;;;;;;4.00;2.63;;;21.80;99.90;;;;;;5013572;28;20210;-75
2021/06/19 01:37:55;;;;;;;4.33;2.93;;;21.70;99.90;;;;;;5013841;28;20185;-75
2021/06/19 01:40:27;;;;;;;3.40;2.60;;;21.60;99.90;;;;;;5013659;28;20418;-74
2021/06/19 01:42:54;;;;;;;4.87;2.50;;;21.70;99.90;;;;;;5012555;28;20479;-74
2021/06/19 01:45:32;;;;;;;4.93;2.60;;;21.60;99.90;;;;;;5013626;28;20930;-75
2021/06/19 01:48:03;;;;;;;4.30;2.80;;;21.50;99.90;;;;;;5012480;28;20417;-75
2021/06/19 01:50:29;;;;;;;4.77;2.97;;;21.60;99.90;;;;;;5013404;28;20953;-75
2021/06/19 01:52:55;;;;;;;2.60;2.40;;;21.50;99.90;;;;;;5012094;28;20425;-75
2021/06/19 01:55:22;;;;;;;5.53;2.73;;;21.60;99.90;;;;;;5013478;28;20516;-75
2021/06/19 01:57:51;;;;;;;6.50;3.20;;;21.60;99.90;;;;;;5013219;28;20410;-75
2021/06/19 02:00:22;;;;;;;5.80;2.73;;;21.50;99.90;;;;;;5013392;28;20440;-76
2021/06/19 02:02:48;;;;;;;12.17;4.20;;;21.40;99.90;;;;;;5013043;28;20820;-74
2021/06/19 02:05:15;;;;;;;11.93;3.07;;;21.40;99.90;;;;;;5014109;28;20495;-75
2021/06/19 02:08:10;;;;;;;6.33;3.20;;;21.30;99.90;;;;;;5017299;28;20261;-75
2021/06/19 02:10:40;;;;;;;4.00;3.43;;;21.30;99.90;;;;;;5012343;28;20565;-74
2021/06/19 02:13:07;;;;;;;4.23;3.07;;;21.30;99.90;;;;;;5017150;28;20413;-74
2021/06/19 02:15:35;;;;;;;4.10;3.13;;;21.20;99.90;;;;;;5017210;28;20452;-75
2021/06/19 02:18:01;;;;;;;4.60;2.70;;;21.10;99.90;;;;;;5017233;28;20410;-75
2021/06/19 02:20:27;;;;;;;4.07;3.40;;;21.00;99.90;;;;;;5017080;28;20414;-75
2021/06/19 02:22:54;;;;;;;4.63;3.30;;;21.00;99.90;;;;;;5016634;28;20437;-75
2021/06/19 02:25:23;;;;;;;5.97;2.90;;;20.90;99.90;;;;;;5017002;28;20203;-75
2021/06/19 02:28:02;;;;;;;5.80;3.00;;;21.00;99.90;;;;;;5016927;28;20784;-74
2021/06/19 02:30:31;;;;;;;3.33;2.10;;;21.00;99.90;;;;;;5015582;28;20943;-75
2021/06/19 02:32:57;;;;;;;2.60;2.13;;;20.90;99.90;;;;;;5016519;28;20413;-75
2021/06/19 02:35:25;;;;;;;7.30;2.60;;;21.00;99.90;;;;;;5016738;28;20826;-76
2021/06/19 02:37:52;;;;;;;3.97;2.47;;;21.00;99.90;;;;;;5016840;28;20483;-75
2021/06/19 02:40:18;;;;;;;3.40;2.47;;;21.00;99.90;;;;;;5016762;28;20784;-75
2021/06/19 02:42:44;;;;;;;5.13;2.30;;;21.00;99.90;;;;;;5016300;28;20445;-76
2021/06/19 02:45:11;;;;;;;2.87;1.90;;;20.90;99.90;;;;;;5016546;28;20858;-75
2021/06/19 02:47:42;;;;;;;4.57;2.80;;;20.90;99.90;;;;;;5015267;28;20475;-75
2021/06/19 02:50:08;;;;;;;2.33;1.70;;;20.90;99.90;;;;;;5016498;28;20410;-75
2021/06/19 02:52:40;;;;;;;2.37;2.03;;;21.00;99.90;;;;;;5016984;28;20741;-76
2021/06/19 02:55:07;;;;;;;4.00;2.03;;;21.00;99.90;;;;;;5014905;28;20901;-77
2021/06/19 02:57:32;;;;;;;1.87;1.60;;;21.00;99.90;;;;;;5015313;28;20441;-74
2021/06/19 02:59:58;;;;;;;4.37;2.50;;;20.90;99.90;;;;;;5016313;28;20422;-74
2021/06/19 03:02:24;;;;;;;2.93;1.57;;;20.90;99.90;;;;;;5016375;28;20174;-75
2021/06/19 03:04:49;;;;;;;5.20;1.97;;;20.90;99.90;;;;;;5015936;28;20218;-76
2021/06/19 03:07:15;;;;;;;4.50;2.97;;;20.80;99.90;;;;;;5015007;28;20206;-75
2021/06/19 03:09:40;;;;;;;3.20;1.80;;;20.80;99.90;;;;;;5016120;28;20214;-75
2021/06/19 03:12:07;;;;;;;2.13;1.60;;;20.70;99.90;;;;;;5016201;28;20217;-75
2021/06/19 03:14:32;;;;;;;2.07;1.97;;;20.70;99.90;;;;;;5015595;28;20668;-75
2021/06/19 03:16:58;;;;;;;4.23;2.73;;;20.60;99.90;;;;;;5013877;28;20565;-75
2021/06/19 03:19:24;;;;;;;1.83;1.63;;;20.60;99.90;;;;;;5015973;28;20175;-74
2021/06/19 03:21:49;;;;;;;2.43;2.00;;;20.50;99.90;;;;;;5015984;28;20179;-74
2021/06/19 03:24:15;;;;;;;3.77;2.37;;;20.50;99.90;;;;;;5015601;28;20273;-74
2021/06/19 03:26:41;;;;;;;2.80;1.60;;;20.60;99.90;;;;;;5015934;28;20698;-75
2021/06/19 03:29:07;;;;;;;2.20;2.00;;;20.50;99.90;;;;;;5015716;28;20187;-76
2021/06/19 03:31:34;;;;;;;3.13;1.70;;;20.50;99.90;;;;;;5015648;28;20237;-76
2021/06/19 03:34:01;;;;;;;2.90;1.67;;;20.50;99.90;;;;;;5013976;28;20525;-75
2021/06/19 03:36:27;;;;;;;1.50;1.40;;;20.40;99.90;;;;;;5015776;28;20426;-74
2021/06/19 03:38:53;;;;;;;1.83;1.53;;;20.40;99.90;;;;;;5015755;28;20433;-76
2021/06/19 03:41:18;;;;;;;3.77;1.63;;;20.40;99.90;;;;;;5014562;28;20433;-76
2021/06/19 03:43:44;;;;;;;3.60;1.57;;;20.40;99.90;;;;;;5013906;28;20309;-75
2021/06/19 03:46:10;;;;;;;1.97;1.70;;;20.40;99.90;;;;;;5014240;28;20186;-76
2021/06/19 03:48:35;;;;;;;2.00;1.37;;;20.40;99.90;;;;;;5015485;28;20296;-74
2021/06/19 03:51:01;;;;;;;4.13;1.60;;;20.40;99.90;;;;;;5015604;28;20625;-74
2021/06/19 03:53:27;;;;;;;3.20;1.77;;;20.40;99.90;;;;;;5013776;28;20587;-76
2021/06/19 03:55:53;;;;;;;5.03;1.60;;;20.50;99.90;;;;;;5015418;28;20438;-76
2021/06/19 03:58:18;;;;;;;2.43;1.70;;;20.50;99.90;;;;;;5014153;28;20186;-74
2021/06/19 04:00:44;;;;;;;2.80;2.10;;;20.50;99.90;;;;;;5015281;28;20584;-75
2021/06/19 04:03:09;;;;;;;3.53;1.67;;;20.50;99.90;;;;;;5014870;28;20205;-76
2021/06/19 04:05:35;;;;;;;2.10;1.90;;;20.40;99.90;;;;;;5015112;28;20199;-75
2021/06/19 04:08:01;;;;;;;1.70;1.40;;;20.30;99.90;;;;;;5015357;28;20265;-74
2021/06/19 04:10:27;;;;;;;1.70;1.60;;;20.30;99.90;;;;;;5014041;28;20605;-74
2021/06/19 04:12:53;;;;;;;2.47;1.50;;;20.20;99.90;;;;;;5014870;28;20436;-78
2021/06/19 04:15:19;;;;;;;13.13;2.43;;;20.20;99.90;;;;;;5015070;28;20520;-75
2021/06/19 04:17:45;;;;;;;2.00;1.40;;;20.20;99.90;;;;;;5015472;28;20218;-74
2021/06/19 04:20:13;;;;;;;2.80;1.73;;;20.30;99.90;;;;;;5014898;28;20414;-74
2021/06/19 04:22:40;;;;;;;3.97;1.70;;;20.30;99.90;;;;;;5013689;28;20426;-75
2021/06/19 04:25:07;;;;;;;1.70;1.50;;;20.50;99.90;;;;;;5014574;28;20446;-75
2021/06/19 04:27:45;;;;;;;4.53;2.07;;;20.50;99.90;;;;;;5014694;28;20937;-75
2021/06/19 04:30:13;;;;;;;2.90;1.80;;;20.50;99.90;;;;;;5014631;28;20913;-75
2021/06/19 04:32:39;;;;;;;1.50;1.40;;;20.50;99.90;;;;;;5013467;28;20781;-78
2021/06/19 04:35:06;;;;;;;3.30;1.77;;;20.50;99.90;;;;;;5014140;28;20461;-75
2021/06/19 04:37:32;;;;;;;1.30;1.20;;;20.50;99.90;;;;;;5014580;28;20809;-77
2021/06/19 04:40:43;;;;;;;1.60;1.50;;;20.60;99.90;;;;;;5014407;28;20418;-76
2021/06/19 04:42:56;;;;;;;2.57;1.77;;;20.60;99.90;;;;;;5010266;28;20261;-76
2021/06/19 04:45:23;;;;;;;1.40;1.30;;;20.60;99.90;;;;;;5014292;28;20433;-77
2021/06/19 04:47:49;;;;;;;1.90;1.47;;;20.60;99.90;;;;;;5014226;28;20422;-76
2021/06/19 04:50:15;;;;;;;1.40;1.30;;;20.60;99.90;;;;;;5014229;28;20559;-77
2021/06/19 04:52:42;;;;;;;2.30;1.80;;;20.50;99.90;;;;;;5014249;28;20418;-77
2021/06/19 04:55:11;;;;;;;1.50;1.40;;;20.60;99.90;;;;;;5012703;28;20663;-77
2021/06/19 04:57:36;;;;;;;3.87;2.30;;;20.70;99.90;;;;;;5014428;28;20505;-77
2021/06/19 05:00:03;;;;;;;1.80;1.60;;;20.80;99.90;;;;;;5014344;28;20492;-77
2021/06/19 05:02:28;;;;;;;1.73;1.47;;;20.80;99.90;;;;;;5013724;28;20201;-77
2021/06/19 05:04:54;;;;;;;1.70;1.60;;;20.70;99.90;;;;;;5013682;28;20441;-76
2021/06/19 05:07:20;;;;;;;1.60;1.50;;;20.80;99.90;;;;;;5014309;28;20186;-77
2021/06/19 05:09:45;;;;;;;2.20;1.70;;;20.80;99.90;;;;;;5014110;28;20182;-77
2021/06/19 05:12:11;;;;;;;1.87;1.77;;;20.90;99.90;;;;;;5013581;28;20651;-76
2021/06/19 05:14:38;;;;;;;3.70;1.60;;;21.10;99.90;;;;;;5013580;28;20203;-77
2021/06/19 05:17:04;;;;;;;2.17;1.60;;;21.10;99.90;;;;;;5013865;28;20424;-76
2021/06/19 05:19:30;;;;;;;3.10;1.60;;;21.10;99.90;;;;;;5013821;28;20421;-77
2021/06/19 05:21:56;;;;;;;3.57;1.80;;;21.10;99.90;;;;;;5013767;28;20182;-76
2021/06/19 05:24:22;;;;;;;1.87;1.23;;;21.10;99.90;;;;;;5013351;28;20601;-76
2021/06/19 05:26:48;;;;;;;1.77;1.50;;;21.20;99.90;;;;;;5013645;28;20241;-76
2021/06/19 05:29:13;;;;;;;3.33;1.80;;;21.20;99.90;;;;;;5013772;28;20179;-77
2021/06/19 05:31:39;;;;;;;1.70;1.60;;;21.20;99.90;;;;;;5013829;28;20473;-77
2021/06/19 05:41:07;;;;;;;2.23;1.20;;;21.40;99.90;;;;;;5010476;28;20414;-77
2021/06/19 05:59:56;;;;;;;2.57;1.23;;;21.70;99.90;;;;;;4969384;28;20459;-75
2021/06/19 06:02:22;;;;;;;4.13;1.17;;;21.70;99.90;;;;;;4954948;28;20452;-76
2021/06/19 06:04:47;;;;;;;5.53;1.10;;;21.70;99.90;;;;;;4954598;28;20576;-76
2021/06/19 06:07:13;;;;;;;1.57;1.37;;;21.80;99.90;;;;;;4955381;28;20256;-76
2021/06/19 06:09:39;;;;;;;2.70;1.43;;;21.80;99.90;;;;;;4953764;29;20279;-77
2021/06/19 06:12:07;;;;;;;1.50;1.40;;;21.80;99.90;;;;;;4955137;28;20216;-77
2021/06/19 06:14:32;;;;;;;4.23;1.67;;;21.80;99.90;;;;;;4954568;28;20284;-76
2021/06/19 06:16:58;;;;;;;2.17;1.53;;;21.90;99.90;;;;;;4955156;28;20500;-76
2021/06/19 06:19:23;;;;;;;3.23;1.70;;;21.70;99.90;;;;;;4955072;28;20173;-77
2021/06/19 06:21:50;;;;;;;5.13;1.83;;;21.90;99.90;;;;;;4954900;28;20181;-76
2021/06/19 06:24:16;;;;;;;5.17;1.50;;;21.90;99.90;;;;;;4954419;28;20200;-77
2021/06/19 06:26:42;;;;;;;4.10;1.80;;;21.90;99.90;;;;;;4954720;28;20840;-76
2021/06/19 06:29:08;;;;;;;3.97;1.40;;;21.90;99.90;;;;;;4954851;28;20432;-75
2021/06/19 06:31:34;;;;;;;1.87;1.50;;;22.00;99.90;;;;;;4954678;28;20468;-76
2021/06/19 06:34:00;;;;;;;4.03;1.60;;;22.00;99.90;;;;;;4954412;28;20685;-76
2021/06/19 06:36:26;;;;;;;6.10;1.57;;;22.00;99.90;;;;;;4954743;28;20419;-77
2021/06/19 06:38:51;;;;;;;1.97;1.30;;;22.10;99.90;;;;;;4954708;28;20642;-77
2021/06/19 06:41:17;;;;;;;1.67;1.43;;;22.10;99.90;;;;;;4954710;28;20212;-76
2021/06/19 06:43:42;;;;;;;2.60;1.40;;;22.20;99.90;;;;;;4954312;28;20705;-76
2021/06/19 06:46:08;;;;;;;2.17;1.50;;;22.10;99.90;;;;;;4953469;29;20589;-76
2021/06/19 06:48:34;;;;;;;3.13;1.40;;;22.20;99.90;;;;;;4953293;29;20188;-76
2021/06/19 06:50:59;;;;;;;3.70;1.67;;;22.20;99.90;;;;;;4954438;28;20213;-77
2021/06/19 06:53:25;;;;;;;1.53;1.30;;;22.20;99.90;;;;;;4956508;28;20184;-76
2021/06/19 06:55:50;;;;;;;3.87;1.93;;;22.20;99.90;;;;;;4958252;28;20564;-77
2021/06/19 06:58:16;;;;;;;2.60;1.30;;;22.30;99.90;;;;;;4957064;29;20260;-76
2021/06/19 07:00:42;;;;;;;3.30;1.60;;;22.40;99.90;;;;;;4956869;28;20212;-76
2021/06/19 07:03:07;;;;;;;7.67;1.50;;;22.50;99.90;;;;;;4956821;29;20193;-76
2021/06/19 07:05:33;;;;;;;5.73;1.70;;;22.50;99.90;;;;;;4958145;28;20213;-77
2021/06/19 07:07:59;;;;;;;4.23;2.07;;;22.50;99.90;;;;;;4958036;28;20208;-76
2021/06/19 07:10:25;;;;;;;5.40;1.70;;;22.50;99.90;;;;;;4956601;29;20460;-78
2021/06/19 07:12:50;;;;;;;2.53;1.60;;;22.70;99.90;;;;;;4957557;28;20189;-77
2021/06/19 07:15:18;;;;;;;2.97;1.40;;;22.60;99.90;;;;;;4957650;28;20275;-75
2021/06/19 07:17:44;;;;;;;3.00;1.30;;;22.60;99.90;;;;;;4957891;28;20517;-77
2021/06/19 07:20:11;;;;;;;1.93;1.70;;;22.70;99.90;;;;;;4956493;29;20455;-77
2021/06/19 07:22:37;;;;;;;2.00;1.20;;;22.90;99.90;;;;;;4957416;28;20413;-75
2021/06/19 07:25:05;;;;;;;4.50;1.70;;;22.80;99.90;;;;;;4957133;28;20432;-76
2021/06/19 07:27:31;;;;;;;1.53;1.23;;;22.80;99.90;;;;;;4957388;28;20428;-77
2021/06/19 07:29:57;;;;;;;1.73;1.30;;;22.80;99.90;;;;;;4957489;28;20758;-77
2021/06/19 07:32:23;;;;;;;5.70;1.37;;;22.80;99.90;;;;;;4957365;28;20216;-76
2021/06/19 07:34:48;;;;;;;4.80;1.50;;;22.80;99.90;;;;;;4955740;28;20452;-77
2021/06/19 07:37:14;;;;;;;2.90;1.30;;;22.90;99.90;;;;;;4956015;28;20605;-76
2021/06/19 07:39:40;;;;;;;4.80;1.40;;;23.00;99.90;;;;;;4957323;28;20181;-77
2021/06/19 07:42:06;;;;;;;2.40;1.17;;;23.00;99.90;;;;;;4957293;28;20292;-75
2021/06/19 07:44:32;;;;;;;4.10;1.50;;;23.10;99.90;;;;;;4956785;28;20209;-78
2021/06/19 07:46:58;;;;;;;4.67;1.50;;;23.10;99.90;;;;;;4956143;29;20424;-78
2021/06/19 07:49:26;;;;;;;3.27;1.40;;;23.20;99.90;;;;;;4953566;28;20623;-79
2021/06/19 07:51:52;;;;;;;4.03;1.37;;;23.30;99.90;;;;;;4954808;28;20483;-79
2021/06/19 07:54:17;;;;;;;6.73;1.40;;;23.40;99.90;;;;;;4955425;28;20433;-80
2021/06/19 07:56:43;;;;;;;3.90;1.30;;;23.30;99.90;;;;;;4952028;28;20199;-79
2021/06/19 07:59:09;;;;;;;6.13;1.60;;;23.20;99.90;;;;;;4956789;28;20260;-81
2021/06/19 08:01:34;;;;;;;3.00;1.67;;;23.20;99.90;;;;;;4954932;28;20223;-77
2021/06/19 08:04:00;;;;;;;1.97;1.70;;;23.20;99.90;;;;;;4953996;28;20209;-78
2021/06/19 08:06:26;;;;;;;1.43;1.33;;;23.40;99.90;;;;;;4955770;28;20594;-79
2021/06/19 08:08:54;;;;;;;3.63;1.80;;;23.40;99.90;;;;;;4954004;28;20527;-77
2021/06/19 08:11:25;;;;;;;7.60;1.63;;;23.80;99.90;;;;;;4952972;28;20468;-79
2021/06/19 08:13:53;;;;;;;4.83;1.63;;;23.90;99.90;;;;;;4953171;28;20483;-78
2021/06/19 08:16:19;;;;;;;3.87;1.83;;;24.10;99.90;;;;;;4953911;28;20475;-80
2021/06/19 08:18:48;;;;;;;1.83;1.40;;;24.30;99.90;;;;;;4953798;28;20921;-78
2021/06/19 08:21:14;;;;;;;5.07;1.53;;;24.50;99.90;;;;;;4937759;29;20863;-77
2021/06/19 08:23:41;;;;;;;5.60;1.43;;;24.60;99.90;;;;;;4954445;28;20444;-78
2021/06/19 08:26:07;;;;;;;1.10;1.00;;;24.80;99.90;;;;;;4953084;29;20428;-77
2021/06/19 08:28:34;;;;;;;3.80;1.10;;;24.70;99.90;;;;;;4954648;28;20463;-77
2021/06/19 08:31:03;;;;;;;2.10;1.23;;;24.40;99.90;;;;;;4954934;28;21046;-78
2021/06/19 08:33:30;;;;;;;3.20;1.00;;;24.60;99.90;;;;;;4952883;28;20421;-78
2021/06/19 08:35:56;;;;;;;2.33;1.20;;;24.70;99.90;;;;;;4954254;28;20420;-77
2021/06/19 08:38:21;;;;;;;2.70;1.30;;;24.50;99.90;;;;;;4953433;28;20432;-77
2021/06/19 08:40:47;;;;;;;2.50;1.40;;;24.60;99.90;;;;;;4954281;28;20185;-78
2021/06/19 08:43:13;;;;;;;5.33;1.20;;;24.70;99.90;;;;;;4954020;28;20204;-78
2021/06/19 08:45:41;;;;;;;2.63;1.40;;;25.30;99.90;;;;;;4954611;28;20681;-77
2021/06/19 08:48:06;;;;;;;3.43;1.10;;;25.50;99.90;;;;;;4953593;28;20243;-78
2021/06/19 08:50:32;;;;;;;2.77;1.50;;;25.30;99.90;;;;;;4953824;28;20499;-78
2021/06/19 08:52:59;;;;;;;2.70;1.27;;;25.30;99.90;;;;;;4953836;28;20680;-79
2021/06/19 08:55:26;;;;;;;3.90;1.10;;;25.10;99.90;;;;;;4954002;28;20576;-77
2021/06/19 08:57:52;;;;;;;2.60;1.10;;;25.20;99.90;;;;;;4952964;29;20417;-77
2021/06/19 09:00:18;;;;;;;2.60;1.07;;;25.70;99.90;;;;;;4954425;28;20455;-79
2021/06/19 09:02:46;;;;;;;1.73;1.10;;;26.00;99.90;;;;;;4967732;28;20615;-79
2021/06/19 09:05:14;;;;;;;1.40;1.20;;;25.90;99.90;;;;;;4954887;28;20515;-80
2021/06/19 09:07:51;;;;;;;2.23;1.17;;;25.90;99.90;;;;;;4953591;28;20433;-79
2021/06/19 09:10:27;;;;;;;3.30;1.13;;;26.50;99.90;;;;;;4953768;28;20456;-78
2021/06/19 09:12:56;;;;;;;3.30;1.10;;;25.70;99.90;;;;;;4953566;28;20431;-75
2021/06/19 09:15:23;;;;;;;3.60;1.40;;;26.30;99.90;;;;;;4953472;28;20433;-77
2021/06/19 09:18:02;;;;;;;3.10;1.00;;;26.70;99.90;;;;;;4953326;28;20515;-77
2021/06/19 09:20:49;;;;;;;3.83;0.90;;;26.50;99.90;;;;;;4954184;28;20427;-77
2021/06/19 09:23:17;;;;;;;1.60;1.40;;;26.90;99.90;;;;;;4953809;28;20435;-78
2021/06/19 09:25:43;;;;;;;2.70;1.20;;;27.70;99.90;;;;;;4952713;28;20424;-79
2021/06/19 09:28:10;;;;;;;6.23;1.33;;;27.70;99.90;;;;;;4953951;28;20837;-76
2021/06/19 09:30:37;;;;;;;1.30;0.90;;;27.40;99.90;;;;;;4953506;28;20458;-79
2021/06/19 09:33:06;;;;;;;2.00;1.00;;;27.10;99.90;;;;;;4953388;28;21178;-78
2021/06/19 09:35:35;;;;;;;1.50;1.30;;;28.00;99.90;;;;;;4953562;28;20444;-78
2021/06/19 09:38:05;;;;;;;2.30;1.10;;;27.30;99.90;;;;;;4952372;29;20421;-77
2021/06/19 09:40:42;;;;;;;2.20;1.10;;;27.80;99.90;;;;;;4952563;28;20430;-78
2021/06/19 09:43:24;;;;;;;2.10;1.10;;;28.30;99.90;;;;;;4953850;28;20442;-77
2021/06/19 09:46:04;;;;;;;3.63;1.10;;;28.10;99.90;;;;;;4952259;28;20424;-77
2021/06/19 09:48:32;;;;;;;1.93;1.00;;;28.50;99.90;;;;;;4953061;28;20761;-77
2021/06/19 09:51:18;;;;;;;1.40;0.87;;;28.30;99.90;;;;;;4952896;28;20468;-78
2021/06/19 09:54:01;;;;;;;2.50;1.13;;;28.60;99.90;;;;;;4950276;28;20472;-80
2021/06/19 09:56:27;;;;;;;1.77;0.90;;;28.70;99.90;;;;;;4954599;28;20417;-79
2021/06/19 09:58:58;;;;;;;2.30;1.23;;;29.00;99.90;;;;;;4954426;28;20413;-78
2021/06/19 10:01:34;;;;;;;1.93;1.20;;;29.40;99.90;;;;;;4953519;29;20542;-77
2021/06/19 10:04:00;;;;;;;1.70;1.00;;;28.80;99.90;;;;;;4953009;28;20470;-80
2021/06/19 10:06:27;;;;;;;4.23;1.17;;;28.90;99.90;;;;;;4953758;28;20424;-77
2021/06/19 10:08:55;;;;;;;2.50;1.00;;;29.10;99.90;;;;;;4951518;28;20424;-79
2021/06/19 10:11:25;;;;;;;1.23;1.07;;;28.90;99.90;;;;;;4953285;28;20949;-78
2021/06/19 10:13:52;;;;;;;2.23;0.80;;;28.90;99.90;;;;;;4952791;28;20448;-79
2021/06/19 10:16:18;;;;;;;1.43;1.10;;;29.60;99.90;;;;;;4952873;28;20417;-77
2021/06/19 10:18:45;;;;;;;1.17;0.93;;;30.20;99.90;;;;;;4953278;28;21004;-77
2021/06/19 10:21:13;;;;;;;1.10;0.97;;;30.80;99.90;;;;;;4953565;28;20716;-77
2021/06/19 10:23:40;;;;;;;1.50;0.90;;;30.20;99.90;;;;;;4952204;28;20450;-82
2021/06/19 10:26:06;;;;;;;1.20;0.90;;;30.60;99.90;;;;;;4952337;28;20489;-80
2021/06/19 10:28:35;;;;;;;2.00;1.10;;;31.40;99.90;;;;;;4956981;28;20431;-79
2021/06/19 10:31:01;;;;;;;1.67;1.10;;;30.30;99.90;;;;;;4956569;28;20460;-79
2021/06/19 10:33:29;;;;;;;5.77;1.30;;;30.70;99.90;;;;;;4956684;28;20438;-76
2021/06/19 10:35:57;;;;;;;2.03;1.17;;;31.40;99.90;;;;;;4957066;28;20425;-77
2021/06/19 10:38:23;;;;;;;1.20;0.93;;;31.30;99.90;;;;;;4956034;28;20952;-77
2021/06/19 10:41:16;;;;;;;1.57;1.07;;;30.00;99.90;;;;;;4957182;28;20424;-77
2021/06/19 10:43:47;;;;;;;4.90;1.00;;;30.00;99.90;;;;;;4955547;28;20460;-78
2021/06/19 10:46:37;;;;;;;3.17;1.20;;;31.10;99.90;;;;;;4955715;28;20424;-77
2021/06/19 10:49:22;;;;;;;3.30;1.03;;;31.10;99.90;;;;;;4956978;28;20424;-77
2021/06/19 10:51:48;;;;;;;2.23;1.20;;;31.80;99.90;;;;;;4955967;28;20471;-78
2021/06/19 10:54:19;;;;;;;2.90;1.27;;;31.80;99.90;;;;;;4954702;28;20858;-78
2021/06/19 10:56:49;;;;;;;1.20;0.90;;;32.10;99.90;;;;;;4956662;28;20535;-79
2021/06/19 10:59:17;;;;;;;3.40;1.20;;;32.90;99.90;;;;;;4956405;28;20499;-80
2021/06/19 11:01:43;;;;;;;1.73;1.23;;;33.00;99.90;;;;;;4956100;28;20452;-78
2021/06/19 11:04:34;;;;;;;2.80;1.10;;;32.80;99.90;;;;;;4956094;28;20455;-78
2021/06/19 11:07:00;;;;;;;2.17;1.37;;;33.30;99.90;;;;;;4956485;28;20196;-79
2021/06/19 11:09:42;;;;;;;2.17;1.00;;;33.30;99.90;;;;;;4955603;28;20436;-79
2021/06/19 11:12:24;;;;;;;2.80;1.10;;;34.00;99.90;;;;;;4956575;28;20209;-77
2021/06/19 11:14:51;;;;;;;1.83;1.00;;;33.70;99.90;;;;;;4955820;28;20527;-79
2021/06/19 11:17:23;;;;;;;1.20;1.00;;;33.70;99.90;;;;;;4955973;28;20432;-78
2021/06/19 11:20:03;;;;;;;0.97;0.90;;;34.40;99.90;;;;;;4956188;28;21235;-78
2021/06/19 11:25:11;;;;;;;2.03;1.20;;;33.40;99.90;;;;;;5109604;27;20553;-79
2021/06/19 11:28:05;;;;;;;2.87;1.53;;;33.70;99.90;;;;;;5068941;28;20423;-80
2021/06/19 11:30:37;;;;;;;2.03;1.03;;;33.90;99.90;;;;;;5067866;28;20416;-78
2021/06/19 11:33:21;;;;;;;5.30;1.30;;;34.40;99.90;;;;;;5068951;28;20497;-80
2021/06/19 11:35:58;;;;;;;1.67;1.30;;;34.70;99.90;;;;;;5101068;28;20502;-80
2021/06/19 11:38:25;;;;;;;2.00;1.23;;;34.50;99.90;;;;;;5100990;28;20434;-78
2021/06/19 11:40:51;;;;;;;1.73;1.10;;;34.80;99.90;;;;;;5068493;28;20423;-79
2021/06/19 11:43:32;;;;;;;1.40;1.30;;;35.30;99.90;;;;;;5068708;28;20533;-79
2021/06/19 11:46:01;;;;;;;2.73;1.17;;;35.70;99.90;;;;;;5067656;28;20514;-79
2021/06/19 11:48:28;;;;;;;2.80;1.00;;;36.10;99.90;;;;;;5067378;28;20454;-79
2021/06/19 11:51:04;;;;;;;2.60;1.27;;;36.50;99.90;;;;;;5067052;28;20423;-77
2021/06/19 11:53:36;;;;;;;4.30;1.30;;;36.20;99.90;;;;;;5066246;28;20426;-78
2021/06/19 11:56:14;;;;;;;1.20;1.10;;;36.30;99.90;;;;;;5068377;28;20485;-79
2021/06/19 11:58:48;;;;;;;1.40;1.03;;;36.70;99.90;;;;;;5068205;28;20441;-80
2021/06/19 12:01:21;;;;;;;3.13;1.50;;;37.30;99.90;;;;;;5068186;28;20843;-78
2021/06/19 12:03:48;;;;;;;1.80;1.23;;;37.20;98.40;;;;;;5067597;28;20887;-78
2021/06/19 12:06:14;;;;;;;1.30;1.20;;;36.40;99.40;;;;;;5068549;28;20431;-78
2021/06/19 12:08:42;;;;;;;1.43;1.20;;;36.60;98.70;;;;;;5066163;28;20423;-77
2021/06/19 12:11:08;;;;;;;1.53;1.30;;;36.90;98.00;;;;;;5100886;28;20441;-77
2021/06/19 12:13:35;;;;;;;1.87;1.20;;;36.40;97.10;;;;;;5067510;28;20427;-77
2021/06/19 12:16:02;;;;;;;2.70;1.33;;;35.50;96.90;;;;;;5067415;28;20427;-77
2021/06/19 12:18:29;;;;;;;2.03;1.30;;;35.80;95.80;;;;;;5067735;28;20430;-76
2021/06/19 12:21:07;;;;;;;1.73;1.20;;;35.90;98.20;;;;;;5067913;28;20860;-77
2021/06/19 12:23:42;;;;;;;2.03;1.13;;;36.30;98.40;;;;;;5098950;28;20462;-77
2021/06/19 12:26:16;;;;;;;1.67;1.57;;;35.70;97.60;;;;;;5067923;28;20424;-78
2021/06/19 12:28:47;;;;;;;1.50;1.40;;;35.40;97.40;;;;;;5116614;23;20496;-77
2021/06/19 12:31:14;;;;;;;1.60;1.50;;;35.00;97.50;;;;;;5028008;28;20504;-77
2021/06/19 12:33:41;;;;;;;1.67;1.43;;;35.20;98.50;;;;;;5027341;28;20424;-77
2021/06/19 12:36:09;;;;;;;1.63;1.23;;;35.80;99.60;;;;;;5012442;28;20426;-78
2021/06/19 12:38:36;;;;;;;2.93;1.60;;;36.10;97.70;;;;;;5014370;28;20409;-77
2021/06/19 12:41:04;;;;;;;1.63;1.50;;;34.50;97.10;;;;;;5014654;28;20500;-78
2021/06/19 12:43:30;;;;;;;3.63;1.30;;;34.90;99.90;;;;;;5013036;28;20561;-76
2021/06/19 12:45:55;;;;;;;1.90;1.30;;;34.70;99.90;;;;;;5013550;28;20508;-79
2021/06/19 12:48:38;;;;;;;4.33;1.63;;;35.00;99.90;;;;;;5014273;28;20186;-77
2021/06/19 12:51:06;;;;;;;1.30;1.20;;;34.30;99.90;;;;;;5013249;28;20177;-79
2021/06/19 12:53:36;;;;;;;1.67;1.30;;;33.90;99.90;;;;;;4996192;28;20453;-77
2021/06/19 12:56:07;;;;;;;1.97;1.40;;;33.90;99.90;;;;;;5012823;28;20854;-76
2021/06/19 12:58:44;;;;;;;2.90;1.20;;;33.60;99.90;;;;;;5014197;28;20445;-80
2021/06/19 13:01:22;;;;;;;3.30;1.30;;;33.50;99.90;;;;;;5012946;28;20657;-76
2021/06/19 13:03:50;;;;;;;3.93;1.87;;;32.80;99.90;;;;;;5014096;28;20564;-76
2021/06/19 13:06:37;;;;;;;2.70;1.77;;;32.90;99.90;;;;;;5013184;28;20425;-79
2021/06/19 13:09:07;;;;;;;3.43;1.53;;;32.90;99.90;;;;;;5014377;28;20435;-78
2021/06/19 13:11:44;;;;;;;2.73;1.50;;;32.80;99.90;;;;;;5014253;28;20406;-78
2021/06/19 13:14:13;;;;;;;3.47;1.60;;;33.00;99.90;;;;;;5012626;28;20437;-77
2021/06/19 13:16:41;;;;;;;2.20;1.30;;;33.40;99.90;;;;;;5014444;28;20428;-77